createdAt,value
2024-02-22T00:02:22.353Z,17.50
2024-02-22T00:05:25.552Z,17.41
2024-02-22T00:08:29.831Z,17.38
2024-02-22T00:11:33.175Z,17.35
2024-02-22T00:14:36.204Z,17.29
2024-02-22T00:17:39.012Z,17.26
2024-02-22T00:20:41.946Z,17.24
2024-02-22T00:23:47.211Z,17.21
2024-02-22T00:26:50.123Z,17.15
2024-02-22T00:29:53.104Z,17.15
2024-02-22T00:32:55.892Z,17.10
2024-02-22T00:35:58.771Z,17.03
2024-02-22T00:39:03.026Z,17.01
2024-02-22T00:42:07.197Z,17.08
2024-02-22T00:45:10.445Z,17.08
2024-02-22T00:48:13.463Z,16.94
2024-02-22T00:51:16.433Z,16.86
2024-02-22T00:54:20.777Z,16.84
2024-02-22T00:57:23.877Z,16.80
2024-02-22T01:00:26.774Z,16.80
2024-02-22T01:03:32.465Z,16.77
2024-02-22T01:06:36.024Z,16.75
2024-02-22T01:09:40.398Z,16.71
2024-02-22T01:12:43.208Z,16.73
2024-02-22T01:15:46.166Z,16.67
2024-02-22T01:18:49.210Z,16.66
2024-02-22T01:21:52.265Z,16.63
2024-02-22T01:24:56.645Z,16.60
2024-02-22T01:27:59.494Z,16.59
2024-02-22T01:31:03.324Z,16.59
2024-02-22T01:34:06.305Z,16.57
2024-02-22T01:37:09.187Z,16.54
2024-02-22T01:40:14.026Z,16.51
2024-02-22T01:43:16.839Z,16.48
2024-02-22T01:46:19.837Z,16.46
2024-02-22T01:49:23.183Z,16.47
2024-02-22T01:52:26.463Z,16.46
2024-02-22T01:55:31.062Z,16.43
2024-02-22T01:58:34.768Z,16.42
2024-02-22T02:01:38.295Z,16.38
2024-02-22T02:04:41.699Z,16.36
2024-02-22T02:07:44.788Z,16.34
2024-02-22T02:10:49.324Z,16.32
2024-02-22T02:13:52.346Z,16.32
2024-02-22T02:16:55.271Z,16.28
2024-02-22T02:19:58.676Z,16.27
2024-02-22T02:23:09.553Z,16.27
2024-02-22T02:26:14.403Z,16.28
2024-02-22T02:29:17.461Z,16.25
2024-02-22T02:32:20.506Z,16.23
2024-02-22T02:35:23.344Z,16.21
2024-02-22T02:38:26.294Z,16.21
2024-02-22T02:41:30.492Z,16.16
2024-02-22T02:44:33.514Z,16.15
2024-02-22T02:47:36.635Z,16.15
2024-02-22T02:50:39.473Z,16.13
2024-02-22T02:53:43.491Z,16.12
2024-02-22T02:56:48.196Z,16.11
2024-02-22T02:59:50.951Z,16.10
2024-02-22T03:02:53.925Z,16.10
2024-02-22T03:05:56.890Z,16.10
2024-02-22T03:09:00.013Z,16.06
2024-02-22T03:12:04.436Z,16.07
2024-02-22T03:15:08.877Z,16.05
2024-02-22T03:18:11.980Z,16.05
2024-02-22T03:21:15.050Z,16.03
2024-02-22T03:24:17.959Z,16.02
2024-02-22T03:27:22.624Z,16.00
2024-02-22T03:30:25.510Z,15.99
2024-02-22T03:33:29.463Z,15.98
2024-02-22T03:36:32.507Z,15.96
2024-02-22T03:39:36.731Z,15.97
2024-02-22T03:42:41.055Z,15.97
2024-02-22T03:45:43.953Z,16.13
2024-02-22T03:48:46.810Z,16.36
2024-02-22T03:51:49.713Z,16.42
2024-02-22T03:54:52.787Z,16.55
2024-02-22T03:57:57.021Z,16.55
2024-02-22T04:01:00.314Z,16.65
2024-02-22T04:04:03.183Z,16.76
2024-02-22T04:07:06.086Z,16.80
2024-02-22T04:10:09.220Z,16.88
2024-02-22T04:13:13.486Z,16.96
2024-02-22T04:16:16.404Z,17.00
2024-02-22T04:19:20.237Z,17.04
2024-02-22T04:22:23.251Z,17.11
2024-02-22T04:25:26.018Z,17.12
2024-02-22T04:28:30.206Z,17.10
2024-02-22T04:31:33.226Z,17.10
2024-02-22T04:34:36.626Z,17.07
2024-02-22T04:37:40.023Z,17.06
2024-02-22T04:40:43.091Z,17.04
2024-02-22T04:43:47.580Z,16.98
2024-02-22T04:46:50.475Z,16.91
2024-02-22T04:49:53.430Z,16.91
2024-02-22T04:52:57.254Z,16.85
2024-02-22T04:56:00.197Z,16.81
2024-02-22T04:59:04.496Z,16.76
2024-02-22T05:02:07.422Z,16.67
2024-02-22T05:05:10.456Z,16.57
2024-02-22T05:08:13.357Z,16.51
2024-02-22T05:11:16.412Z,16.45
2024-02-22T05:14:20.919Z,16.42
2024-02-22T05:17:23.757Z,16.34
2024-02-22T05:20:26.690Z,16.29
2024-02-22T05:23:29.505Z,16.25
2024-02-22T05:26:32.353Z,16.29
2024-02-22T05:29:36.462Z,16.25
2024-02-22T05:32:39.436Z,16.22
2024-02-22T05:35:42.699Z,16.20
2024-02-22T05:38:45.409Z,16.15
2024-02-22T05:41:48.314Z,16.14
2024-02-22T05:44:52.600Z,16.14
2024-02-22T05:47:56.292Z,16.08
2024-02-22T05:50:59.299Z,16.07
2024-02-22T05:54:02.324Z,16.04
2024-02-22T05:57:05.423Z,16.04
2024-02-22T06:00:10.675Z,16.01
2024-02-22T06:03:13.737Z,16.00
2024-02-22T06:06:17.389Z,15.95
2024-02-22T06:09:20.268Z,15.95
2024-02-22T06:12:23.204Z,15.92
2024-02-22T06:15:27.400Z,15.87
2024-02-22T06:18:30.313Z,15.88
2024-02-22T06:21:33.102Z,15.84
2024-02-22T06:24:36.125Z,15.85
2024-02-22T06:27:41.910Z,15.82
2024-02-22T06:30:46.299Z,15.83
2024-02-22T06:33:49.456Z,15.80
2024-02-22T06:36:52.452Z,15.77
2024-02-22T06:39:55.353Z,15.79
2024-02-22T06:42:59.711Z,15.75
2024-02-22T06:46:04.968Z,15.76
2024-02-22T06:49:09.625Z,15.72
2024-02-22T06:52:12.538Z,15.71
2024-02-22T06:55:16.504Z,15.71
2024-02-22T06:58:20.327Z,15.70
2024-02-22T07:01:24.667Z,15.68
2024-02-22T07:04:27.712Z,15.64
2024-02-22T07:07:30.678Z,15.65
2024-02-22T07:10:33.786Z,15.60
2024-02-22T07:13:36.713Z,15.65
2024-02-22T07:16:41.955Z,15.62
2024-02-22T07:19:45.166Z,15.58
2024-02-22T07:22:48.808Z,15.57
2024-02-22T07:25:51.959Z,15.57
2024-02-22T07:28:54.916Z,15.58
2024-02-22T07:31:59.582Z,15.59
2024-02-22T07:35:02.599Z,15.59
2024-02-22T07:38:05.821Z,15.55
2024-02-22T07:41:09.934Z,15.56
2024-02-22T07:44:13.310Z,15.54
2024-02-22T07:47:18.140Z,15.56
2024-02-22T07:50:22.073Z,15.52
2024-02-22T07:53:25.080Z,15.50
2024-02-22T07:56:28.031Z,15.51
2024-02-22T07:59:30.855Z,15.49
2024-02-22T08:02:35.043Z,15.48
2024-02-22T08:05:37.960Z,15.48
2024-02-22T08:08:41.215Z,15.47
2024-02-22T08:11:44.259Z,15.45
2024-02-22T08:14:47.939Z,15.47
2024-02-22T08:17:52.588Z,15.45
2024-02-22T08:20:55.578Z,15.40
2024-02-22T08:23:58.483Z,15.45
2024-02-22T08:27:01.277Z,15.42
2024-02-22T08:30:04.089Z,15.41
2024-02-22T08:33:08.678Z,15.42
2024-02-22T08:36:11.641Z,15.41
2024-02-22T08:39:15.393Z,15.39
2024-02-22T08:42:18.194Z,15.35
2024-02-22T08:45:20.940Z,15.35
2024-02-22T08:48:27.080Z,15.38
2024-02-22T08:51:31.468Z,15.34
2024-02-22T08:54:37.554Z,15.36
2024-02-22T08:57:51.104Z,15.33
2024-02-22T09:00:57.201Z,15.35
2024-02-22T09:04:01.581Z,15.34
2024-02-22T09:07:04.730Z,15.32
2024-02-22T09:10:08.736Z,15.32
2024-02-22T09:13:11.692Z,15.35
2024-02-22T09:16:15.102Z,15.32
2024-02-22T09:19:19.435Z,15.31
2024-02-22T09:22:22.397Z,15.31
2024-02-22T09:25:25.556Z,15.28
2024-02-22T09:28:28.496Z,15.28
2024-02-22T09:31:31.371Z,15.29
2024-02-22T09:34:35.762Z,15.30
2024-02-22T09:37:38.653Z,15.30
2024-02-22T09:40:41.633Z,15.27
2024-02-22T09:43:44.754Z,15.32
2024-02-22T09:46:50.356Z,15.38
2024-02-22T09:49:54.836Z,15.48
2024-02-22T09:52:58.399Z,15.59
2024-02-22T09:56:01.432Z,15.71
2024-02-22T09:59:04.448Z,15.81
2024-02-22T10:02:08.247Z,15.91
2024-02-22T10:05:13.582Z,16.01
2024-02-22T10:08:17.155Z,16.08
2024-02-22T10:11:21.110Z,16.13
2024-02-22T10:14:24.292Z,16.20
2024-02-22T10:17:28.525Z,16.22
2024-02-22T10:20:34.841Z,16.29
2024-02-22T10:23:38.900Z,16.34
2024-02-22T10:26:42.394Z,16.35
2024-02-22T10:29:45.321Z,16.41
2024-02-22T10:32:49.059Z,16.45
2024-02-22T10:35:54.139Z,16.52
2024-02-22T10:38:57.424Z,16.53
2024-02-22T10:42:01.262Z,16.56
2024-02-22T10:45:04.230Z,16.58
2024-02-22T10:48:09.151Z,16.62
2024-02-22T10:51:13.672Z,16.64
2024-02-22T10:54:16.530Z,16.65
2024-02-22T10:57:20.419Z,16.69
2024-02-22T11:00:23.922Z,16.72
2024-02-22T11:03:27.866Z,16.75
2024-02-22T11:06:39.342Z,16.77
2024-02-22T11:09:42.771Z,16.74
2024-02-22T11:12:46.149Z,16.81
2024-02-22T11:15:48.951Z,16.84
2024-02-22T11:18:51.946Z,16.89
2024-02-22T11:21:56.340Z,16.72
2024-02-22T11:24:59.191Z,16.62
2024-02-22T11:28:03.072Z,16.56
2024-02-22T11:31:12.442Z,16.54
2024-02-22T11:34:18.566Z,16.48
2024-02-22T11:37:23.094Z,16.44
2024-02-22T11:40:26.672Z,16.38
2024-02-22T11:43:29.627Z,16.33
2024-02-22T11:46:34.957Z,16.27
2024-02-22T11:49:37.911Z,16.23
2024-02-22T11:52:42.240Z,16.17
2024-02-22T11:55:45.152Z,16.11
2024-02-22T11:58:47.967Z,16.07
2024-02-22T12:01:51.921Z,16.02
2024-02-22T12:04:56.016Z,15.99
2024-02-22T12:08:00.374Z,15.96
2024-02-22T12:11:05.683Z,15.96
2024-02-22T12:14:08.756Z,15.95
2024-02-22T12:17:12.247Z,15.90
2024-02-22T12:20:16.829Z,15.89
2024-02-22T12:23:21.222Z,15.89
2024-02-22T12:26:24.133Z,15.85
2024-02-22T12:29:28.277Z,15.83
2024-02-22T12:32:31.360Z,15.83
2024-02-22T12:35:34.390Z,15.82
2024-02-22T12:38:38.652Z,15.82
2024-02-22T12:41:41.729Z,15.78
2024-02-22T12:44:44.568Z,15.76
2024-02-22T12:47:47.552Z,15.72
2024-02-22T12:50:50.423Z,15.71
2024-02-22T12:53:55.235Z,15.69
2024-02-22T12:56:58.107Z,15.67
2024-02-22T13:00:00.908Z,15.65
2024-02-22T13:03:04.170Z,15.70
2024-02-22T13:06:07.166Z,15.71
2024-02-22T13:09:12.567Z,15.78
2024-02-22T13:12:15.797Z,15.89
2024-02-22T13:15:18.852Z,15.97
2024-02-22T13:18:21.734Z,16.12
2024-02-22T13:21:25.080Z,16.22
2024-02-22T13:24:29.371Z,16.32
2024-02-22T13:27:34.478Z,16.36
2024-02-22T13:30:37.535Z,16.42
2024-02-22T13:33:46.689Z,16.46
2024-02-22T13:36:50.092Z,16.52
2024-02-22T13:40:00.796Z,16.60
2024-02-22T13:43:10.129Z,16.64
2024-02-22T13:46:12.971Z,16.63
2024-02-22T13:49:18.995Z,16.71
2024-02-22T13:52:22.248Z,16.76
2024-02-22T13:55:26.540Z,16.95
2024-02-22T14:01:45.662Z,17.03
2024-02-22T14:04:48.725Z,17.29
2024-02-22T14:07:55.940Z,17.02
2024-02-22T14:10:58.822Z,16.96
2024-02-22T14:14:02.114Z,17.00
2024-02-22T14:17:07.615Z,17.02
2024-02-22T14:20:12.434Z,17.03
2024-02-22T14:23:15.636Z,17.06
2024-02-22T14:26:18.653Z,17.09
2024-02-22T14:29:22.201Z,17.10
2024-02-22T14:32:28.101Z,17.19
2024-02-22T14:35:31.440Z,17.17
2024-02-22T14:38:34.846Z,17.18
2024-02-22T14:41:37.810Z,17.21
2024-02-22T14:44:43.562Z,17.22
2024-02-22T14:47:48.219Z,17.22
2024-02-22T14:50:51.224Z,17.27
2024-02-22T14:53:54.080Z,17.26
2024-02-22T14:56:56.862Z,17.30
2024-02-22T14:59:59.652Z,17.33
2024-02-22T15:03:03.822Z,17.30
2024-02-22T15:06:10.671Z,17.29
2024-02-22T15:09:17.898Z,17.27
2024-02-22T15:12:20.809Z,17.23
2024-02-22T15:15:23.768Z,17.31
2024-02-22T15:18:28.103Z,17.17
2024-02-22T15:21:31.135Z,17.30
2024-02-22T15:24:34.973Z,17.18
2024-02-22T15:27:41.029Z,17.08
2024-02-22T15:30:43.899Z,17.02
2024-02-22T15:33:54.556Z,16.98
2024-02-22T15:37:02.089Z,16.92
2024-02-22T15:40:08.308Z,16.87
2024-02-22T15:43:13.711Z,16.87
2024-02-22T15:46:17.387Z,16.75
2024-02-22T15:49:23.434Z,16.71
2024-02-22T15:52:26.587Z,16.64
2024-02-22T15:55:29.510Z,16.58
2024-02-22T15:58:32.688Z,16.60
2024-02-22T16:01:35.699Z,16.57
2024-02-22T16:04:40.365Z,16.54
2024-02-22T16:07:43.544Z,16.56
2024-02-22T16:10:46.449Z,16.49
2024-02-22T16:13:49.622Z,16.43
2024-02-22T16:16:56.632Z,16.43
2024-02-22T16:20:02.639Z,16.39
2024-02-22T16:23:09.888Z,16.37
2024-02-22T16:26:14.946Z,16.33
2024-02-22T16:29:18.057Z,16.48
2024-02-22T16:32:21.285Z,16.34
2024-02-22T16:35:25.480Z,16.36
2024-02-22T16:38:28.363Z,16.32
2024-02-22T16:41:31.934Z,16.37
2024-02-22T16:44:39.879Z,16.30
2024-02-22T16:47:45.978Z,16.25
2024-02-22T16:50:50.732Z,16.21
2024-02-22T16:53:53.549Z,16.18
2024-02-22T16:56:57.445Z,16.15
2024-02-22T17:00:00.365Z,16.11
2024-02-22T17:03:03.357Z,16.14
2024-02-22T17:06:07.912Z,16.09
2024-02-22T17:09:10.939Z,16.07
2024-02-22T17:12:13.972Z,16.05
2024-02-22T17:15:17.205Z,16.06
2024-02-22T17:18:23.135Z,16.02
2024-02-22T17:21:27.342Z,16.06
2024-02-22T17:24:32.114Z,15.98
2024-02-22T17:27:35.174Z,15.96
2024-02-22T17:30:38.155Z,15.95
2024-02-22T17:33:40.915Z,15.95
2024-02-22T17:36:45.236Z,15.94
2024-02-22T17:39:48.597Z,15.91
2024-02-22T17:42:51.529Z,15.87
2024-02-22T17:45:54.531Z,15.87
2024-02-22T17:48:57.457Z,15.83
2024-02-22T17:52:02.354Z,15.82
2024-02-22T17:55:09.739Z,15.78
2024-02-22T17:58:12.912Z,15.81
2024-02-22T18:01:16.052Z,15.83
2024-02-22T18:07:26.448Z,16.06
2024-02-22T18:10:29.356Z,16.14
2024-02-22T18:13:32.420Z,16.48
2024-02-22T18:16:36.026Z,16.28
2024-02-22T18:19:39.117Z,16.43
2024-02-22T18:22:43.484Z,16.43
2024-02-22T18:25:46.599Z,16.51
2024-02-22T18:28:49.588Z,16.56
2024-02-22T18:31:52.610Z,16.64
2024-02-22T18:34:55.527Z,17.09
2024-02-22T18:37:59.975Z,16.98
2024-02-22T18:41:03.752Z,16.73
2024-02-22T18:44:06.819Z,16.57
2024-02-22T18:47:11.237Z,16.74
2024-02-22T18:50:14.273Z,16.77
2024-02-22T18:53:18.630Z,16.65
2024-02-22T18:56:21.741Z,16.80
2024-02-22T18:59:24.864Z,16.85
2024-02-22T19:02:28.381Z,16.89
2024-02-22T19:05:31.210Z,16.93
2024-02-22T19:08:38.689Z,16.93
2024-02-22T19:11:41.737Z,16.91
2024-02-22T19:14:44.768Z,16.93
2024-02-22T19:17:47.600Z,16.95
2024-02-22T19:20:50.477Z,16.95
2024-02-22T19:23:55.121Z,17.01
2024-02-22T19:27:02.970Z,17.01
2024-02-22T19:30:08.124Z,17.03
2024-02-22T19:33:11.427Z,17.11
2024-02-22T19:36:14.348Z,17.05
2024-02-22T19:39:21.966Z,16.98
2024-02-22T19:42:25.288Z,17.01
2024-02-22T19:45:28.963Z,17.00
2024-02-22T19:48:32.038Z,17.01
2024-02-22T19:51:35.308Z,17.02
2024-02-22T19:54:39.897Z,17.01
2024-02-22T19:57:43.612Z,17.01
2024-02-22T20:00:49.836Z,17.06
2024-02-22T20:03:52.975Z,17.14
2024-02-22T20:06:56.034Z,17.03
2024-02-22T20:10:00.338Z,17.07
2024-02-22T20:13:03.695Z,17.12
2024-02-22T20:16:07.419Z,17.19
2024-02-22T20:19:10.437Z,17.20
2024-02-22T20:22:14.240Z,17.20
2024-02-22T20:25:18.496Z,17.23
2024-02-22T20:28:21.368Z,17.27
2024-02-22T20:31:24.225Z,17.27
2024-02-22T20:34:27.183Z,17.30
2024-02-22T20:37:30.088Z,17.33
2024-02-22T20:40:34.538Z,17.36
2024-02-22T20:43:37.492Z,17.39
2024-02-22T20:46:41.452Z,17.40
2024-02-22T20:49:44.447Z,17.44
2024-02-22T20:52:48.334Z,17.45
2024-02-22T20:55:55.188Z,17.46
2024-02-22T20:58:59.746Z,17.49
2024-02-22T21:02:02.781Z,17.48
2024-02-22T21:05:07.588Z,17.59
2024-02-22T21:08:10.593Z,17.71
2024-02-22T21:11:15.930Z,17.72
2024-02-22T21:14:18.938Z,17.77
2024-02-22T21:17:21.938Z,17.79
2024-02-22T21:20:24.833Z,17.84
2024-02-22T21:23:27.899Z,17.86
2024-02-22T21:26:32.176Z,17.99
2024-02-22T21:29:35.213Z,17.99
2024-02-22T21:32:38.242Z,17.91
2024-02-22T21:35:41.157Z,17.92
2024-02-22T21:38:44.303Z,17.92
2024-02-22T21:41:48.651Z,18.03
2024-02-22T21:44:51.563Z,18.04
2024-02-22T21:47:54.604Z,18.02
2024-02-22T21:50:57.468Z,18.02
2024-02-22T21:54:00.393Z,18.04
2024-02-22T21:57:04.812Z,18.05
2024-02-22T22:00:08.665Z,18.04
2024-02-22T22:03:12.194Z,18.06
2024-02-22T22:06:16.718Z,18.13
2024-02-22T22:09:20.714Z,18.09
2024-02-22T22:12:25.368Z,18.13
2024-02-22T22:15:28.561Z,18.13
2024-02-22T22:18:32.258Z,18.14
2024-02-22T22:21:35.287Z,18.16
2024-02-22T22:24:41.450Z,18.17
2024-02-22T22:27:46.757Z,18.22
2024-02-22T22:30:49.599Z,18.19
2024-02-22T22:33:52.489Z,18.18
2024-02-22T22:36:55.347Z,18.28
2024-02-22T22:39:59.347Z,18.22
2024-02-22T22:43:03.809Z,18.22
2024-02-22T22:46:06.665Z,18.27
2024-02-22T22:49:15.820Z,18.37
2024-02-22T22:52:18.855Z,18.26
2024-02-22T22:55:21.775Z,18.32
2024-02-22T22:58:26.777Z,18.34
2024-02-22T23:01:29.693Z,18.47
2024-02-22T23:04:34.925Z,18.39
2024-02-22T23:07:38.138Z,18.38
2024-02-22T23:10:41.336Z,18.41
2024-02-22T23:13:46.206Z,18.42
2024-02-22T23:16:49.827Z,18.43
2024-02-22T23:19:53.194Z,18.59
2024-02-22T23:22:56.175Z,18.48
2024-02-22T23:25:59.044Z,18.43
2024-02-22T23:29:03.282Z,18.41
2024-02-22T23:32:06.621Z,18.37
2024-02-22T23:35:14.099Z,18.34
2024-02-22T23:38:17.240Z,18.31
2024-02-22T23:41:25.580Z,18.26
2024-02-22T23:44:34.171Z,18.19
2024-02-22T23:47:37.281Z,18.18
2024-02-22T23:50:40.159Z,18.13
2024-02-22T23:53:42.975Z,18.07
2024-02-22T23:56:46.468Z,18.01
2024-02-22T23:59:50.754Z,17.99
